sensor_id;sensor_type;location;lat;lon;timestamp;pressure;altitude;pressure_sealevel;temperature;humidity
60337;BME280;46978;50.288;28.624;2023-12-20T00:00:21;98479.45;;;5.11;67.79
60337;BME280;46978;50.288;28.624;2023-12-20T00:01:25;98482.86;;;5.12;68.08
60337;BME280;46978;50.288;28.624;2023-12-20T00:02:27;98472.59;;;5.10;67.93
60337;BME280;46978;50.288;28.624;2023-12-20T00:03:29;98478.55;;;5.12;67.36
60337;BME280;46978;50.288;28.624;2023-12-20T00:04:30;98476.87;;;5.11;67.99
60337;BME280;46978;50.288;28.624;2023-12-20T00:05:32;98464.03;;;5.10;68.27
60337;BME280;46978;50.288;28.624;2023-12-20T00:06:34;98470.02;;;5.10;68.35
60337;BME280;46978;50.288;28.624;2023-12-20T00:07:35;98470.02;;;5.10;68.27
60337;BME280;46978;50.288;28.624;2023-12-20T00:08:37;98460.59;;;5.09;68.49
60337;BME280;46978;50.288;28.624;2023-12-20T00:09:39;98450.35;;;5.05;68.23
60337;BME280;46978;50.288;28.624;2023-12-20T00:10:41;98462.32;;;5.09;68.26
60337;BME280;46978;50.288;28.624;2023-12-20T00:11:42;98452.88;;;5.09;68.15
60337;BME280;46978;50.288;28.624;2023-12-20T00:12:44;98464.86;;;5.12;67.54
60337;BME280;46978;50.288;28.624;2023-12-20T00:13:45;98463.98;;;5.14;67.51
60337;BME280;46978;50.288;28.624;2023-12-20T00:14:47;98460.52;;;5.15;67.97
60337;BME280;46978;50.288;28.624;2023-12-20T00:15:49;98456.27;;;5.14;68.26
60337;BME280;46978;50.288;28.624;2023-12-20T00:16:50;98462.25;;;5.15;67.78
60337;BME280;46978;50.288;28.624;2023-12-20T00:17:52;98458.83;;;5.16;67.82
60337;BME280;46978;50.288;28.624;2023-12-20T00:18:53;98451.94;;;5.18;67.36
60337;BME280;46978;50.288;28.624;2023-12-20T00:19:55;98464.74;;;5.23;67.34
60337;BME280;46978;50.288;28.624;2023-12-20T00:20:57;98460.42;;;5.25;67.56
60337;BME280;46978;50.288;28.624;2023-12-20T00:21:58;98455.28;;;5.25;67.69
60337;BME280;46978;50.288;28.624;2023-12-20T00:23:00;98448.42;;;5.27;67.37
60337;BME280;46978;50.288;28.624;2023-12-20T00:24:02;98447.51;;;5.29;67.26
60337;BME280;46978;50.288;28.624;2023-12-20T00:25:04;98448.35;;;5.30;67.15
60337;BME280;46978;50.288;28.624;2023-12-20T00:26:06;98445.76;;;5.31;67.32
60337;BME280;46978;50.288;28.624;2023-12-20T00:27:08;98450.91;;;5.31;67.41
60337;BME280;46978;50.288;28.624;2023-12-20T00:28:09;98439.75;;;5.32;67.31
60337;BME280;46978;50.288;28.624;2023-12-20T00:29:11;98436.34;;;5.32;67.29
60337;BME280;46978;50.288;28.624;2023-12-20T00:30:13;98438.91;;;5.32;67.18
60337;BME280;46978;50.288;28.624;2023-12-20T00:31:15;98438.04;;;5.31;67.39
60337;BME280;46978;50.288;28.624;2023-12-20T00:32:16;98449.19;;;5.33;67.27
60337;BME280;46978;50.288;28.624;2023-12-20T00:33:18;98442.33;;;5.32;67.18
60337;BME280;46978;50.288;28.624;2023-12-20T00:34:19;98444.05;;;5.33;67.07
60337;BME280;46978;50.288;28.624;2023-12-20T00:35:21;98437.19;;;5.32;67.36
60337;BME280;46978;50.288;28.624;2023-12-20T00:36:25;98442.33;;;5.32;67.00
60337;BME280;46978;50.288;28.624;2023-12-20T00:37:26;98444.92;;;5.31;67.17
60337;BME280;46978;50.288;28.624;2023-12-20T00:38:28;98431.22;;;5.30;67.47
60337;BME280;46978;50.288;28.624;2023-12-20T00:39:29;98440.63;;;5.30;67.31
60337;BME280;46978;50.288;28.624;2023-12-20T00:40:31;98443.22;;;5.28;67.26
60337;BME280;46978;50.288;28.624;2023-12-20T00:41:33;98430.41;;;5.27;67.18
60337;BME280;46978;50.288;28.624;2023-12-20T00:42:35;98430.43;;;5.25;67.13
60337;BME280;46978;50.288;28.624;2023-12-20T00:43:36;98428.72;;;5.24;67.17
60337;BME280;46978;50.288;28.624;2023-12-20T00:44:38;98426.16;;;5.23;67.11
60337;BME280;46978;50.288;28.624;2023-12-20T00:45:40;98424.43;;;5.23;66.85
60337;BME280;46978;50.288;28.624;2023-12-20T00:46:41;98434.70;;;5.25;67.13
60337;BME280;46978;50.288;28.624;2023-12-20T00:47:43;98433.88;;;5.23;67.19
60337;BME280;46978;50.288;28.624;2023-12-20T00:48:45;98427.91;;;5.20;67.42
60337;BME280;46978;50.288;28.624;2023-12-20T00:49:46;98436.48;;;5.19;67.42
60337;BME280;46978;50.288;28.624;2023-12-20T00:50:49;98435.64;;;5.19;66.89
60337;BME280;46978;50.288;28.624;2023-12-20T00:51:50;98433.93;;;5.18;67.26
60337;BME280;46978;50.288;28.624;2023-12-20T00:52:52;98422.82;;;5.16;67.03
60337;BME280;46978;50.288;28.624;2023-12-20T00:53:54;98426.22;;;5.18;66.62
60337;BME280;46978;50.288;28.624;2023-12-20T00:54:55;98424.48;;;5.18;66.53
60337;BME280;46978;50.288;28.624;2023-12-20T00:55:57;98415.98;;;5.13;67.35
60337;BME280;46978;50.288;28.624;2023-12-20T00:56:58;98415.98;;;5.13;67.35
60337;BME280;46978;50.288;28.624;2023-12-20T00:58:00;98421.13;;;5.13;66.82
60337;BME280;46978;50.288;28.624;2023-12-20T00:59:02;98403.98;;;5.12;67.07
60337;BME280;46978;50.288;28.624;2023-12-20T01:00:04;98410.02;;;5.11;66.87
60337;BME280;46978;50.288;28.624;2023-12-20T01:01:06;98414.28;;;5.11;66.49
60337;BME280;46978;50.288;28.624;2023-12-20T01:02:08;98411.72;;;5.11;66.62
60337;BME280;46978;50.288;28.624;2023-12-20T01:03:10;98405.75;;;5.09;66.74
60337;BME280;46978;50.288;28.624;2023-12-20T01:04:11;98406.63;;;5.06;66.80
60337;BME280;46978;50.288;28.624;2023-12-20T01:05:13;98406.63;;;5.06;66.60
60337;BME280;46978;50.288;28.624;2023-12-20T01:06:15;98398.95;;;5.03;66.67
60337;BME280;46978;50.288;28.624;2023-12-20T01:07:17;98399.81;;;5.03;66.33
60337;BME280;46978;50.288;28.624;2023-12-20T01:08:19;98404.09;;;5.03;66.55
60337;BME280;46978;50.288;28.624;2023-12-20T01:09:20;98395.56;;;4.99;66.84
60337;BME280;46978;50.288;28.624;2023-12-20T01:10:24;98395.59;;;4.98;66.88
60337;BME280;46978;50.288;28.624;2023-12-20T01:11:25;98402.45;;;4.97;66.62
60337;BME280;46978;50.288;28.624;2023-12-20T01:12:27;98393.05;;;4.95;66.86
60337;BME280;46978;50.288;28.624;2023-12-20T01:13:29;98387.08;;;4.93;66.47
60337;BME280;46978;50.288;28.624;2023-12-20T01:14:30;98393.91;;;4.94;66.45
60337;BME280;46978;50.288;28.624;2023-12-20T01:15:32;98395.63;;;4.95;66.57
60337;BME280;46978;50.288;28.624;2023-12-20T01:16:33;98396.42;;;4.98;65.64
60337;BME280;46978;50.288;28.624;2023-12-20T01:17:35;98393.81;;;5.01;65.55
60337;BME280;46978;50.288;28.624;2023-12-20T01:18:37;98394.66;;;5.05;65.52
60337;BME280;46978;50.288;28.624;2023-12-20T01:19:39;98392.07;;;5.07;65.24
60337;BME280;46978;50.288;28.624;2023-12-20T01:20:40;98392.89;;;5.09;65.08
60337;BME280;46978;50.288;28.624;2023-12-20T01:21:42;98392.03;;;5.10;65.34
60337;BME280;46978;50.288;28.624;2023-12-20T01:22:44;98391.16;;;5.09;65.11
60337;BME280;46978;50.288;28.624;2023-12-20T01:23:45;98380.02;;;5.10;64.90
60337;BME280;46978;50.288;28.624;2023-12-20T01:24:47;98383.43;;;5.11;65.13
60337;BME280;46978;50.288;28.624;2023-12-20T01:25:48;98388.55;;;5.12;64.68
60337;BME280;46978;50.288;28.624;2023-12-20T01:26:50;98379.16;;;5.11;65.15
60337;BME280;46978;50.288;28.624;2023-12-20T01:27:52;98383.39;;;5.14;64.71
60337;BME280;46978;50.288;28.624;2023-12-20T01:28:53;98379.13;;;5.14;64.25
60337;BME280;46978;50.288;28.624;2023-12-20T01:29:55;98376.52;;;5.17;64.57
60337;BME280;46978;50.288;28.624;2023-12-20T01:30:57;98383.38;;;5.15;64.91
60337;BME280;46978;50.288;28.624;2023-12-20T01:31:59;98378.25;;;5.14;64.91
60337;BME280;46978;50.288;28.624;2023-12-20T01:33:01;98372.30;;;5.10;65.18
60337;BME280;46978;50.288;28.624;2023-12-20T01:34:02;98378.30;;;5.09;65.21
60337;BME280;46978;50.288;28.624;2023-12-20T01:35:04;98378.32;;;5.08;65.19
60337;BME280;46978;50.288;28.624;2023-12-20T01:36:06;98368.92;;;5.07;65.40
60337;BME280;46978;50.288;28.624;2023-12-20T01:37:08;98377.48;;;5.07;64.62
60337;BME280;46978;50.288;28.624;2023-12-20T01:38:09;98370.59;;;5.09;64.45
60337;BME280;46978;50.288;28.624;2023-12-20T01:39:11;98378.28;;;5.11;64.90
60337;BME280;46978;50.288;28.624;2023-12-20T01:40:13;98370.57;;;5.11;64.51
60337;BME280;46978;50.288;28.624;2023-12-20T01:41:15;98367.94;;;5.15;63.98
60337;BME280;46978;50.288;28.624;2023-12-20T01:42:18;98367.94;;;5.15;63.98
60337;BME280;46978;50.288;28.624;2023-12-20T01:43:20;98359.37;;;5.16;63.72
60337;BME280;46978;50.288;28.624;2023-12-20T01:44:21;98350.76;;;5.20;63.99
60337;BME280;46978;50.288;28.624;2023-12-20T01:45:23;98355.84;;;5.25;63.46
60337;BME280;46978;50.288;28.624;2023-12-20T01:46:25;98356.66;;;5.27;63.93
60337;BME280;46978;50.288;28.624;2023-12-20T01:47:28;98367.77;;;5.29;63.29
60337;BME280;46978;50.288;28.624;2023-12-20T01:48:30;98358.32;;;5.30;63.60
60337;BME280;46978;50.288;28.624;2023-12-20T01:49:32;98362.63;;;5.29;63.60
60337;BME280;46978;50.288;28.624;2023-12-20T01:50:36;98358.34;;;5.28;63.77
60337;BME280;46978;50.288;28.624;2023-12-20T01:51:38;98354.09;;;5.27;63.52
60337;BME280;46978;50.288;28.624;2023-12-20T01:52:42;98357.55;;;5.25;63.78
60337;BME280;46978;50.288;28.624;2023-12-20T01:53:45;98343.84;;;5.24;63.72
60337;BME280;46978;50.288;28.624;2023-12-20T01:54:47;98356.68;;;5.26;63.57
60337;BME280;46978;50.288;28.624;2023-12-20T01:55:50;98354.13;;;5.24;63.58
60337;BME280;46978;50.288;28.624;2023-12-20T01:56:54;98351.58;;;5.23;63.89
60337;BME280;46978;50.288;28.624;2023-12-20T01:57:56;98344.77;;;5.18;63.18
60337;BME280;46978;50.288;28.624;2023-12-20T01:59:00;98349.87;;;5.21;63.91
60337;BME280;46978;50.288;28.624;2023-12-20T02:00:02;98349.88;;;5.20;63.66
60337;BME280;46978;50.288;28.624;2023-12-20T02:01:04;98341.33;;;5.19;63.77
60337;BME280;46978;50.288;28.624;2023-12-20T02:02:07;98346.47;;;5.19;63.90
60337;BME280;46978;50.288;28.624;2023-12-20T02:03:09;98343.92;;;5.18;64.01
60337;BME280;46978;50.288;28.624;2023-12-20T02:04:11;98339.64;;;5.17;63.55
60337;BME280;46978;50.288;28.624;2023-12-20T02:05:13;98337.94;;;5.17;63.76
60337;BME280;46978;50.288;28.624;2023-12-20T02:06:16;98337.94;;;5.17;63.59
60337;BME280;46978;50.288;28.624;2023-12-20T02:07:20;98342.19;;;5.18;63.72
60337;BME280;46978;50.288;28.624;2023-12-20T02:08:22;98335.36;;;5.17;62.63
60337;BME280;46978;50.288;28.624;2023-12-20T02:09:24;98335.36;;;5.17;62.63
60337;BME280;46978;50.288;28.624;2023-12-20T02:10:28;98332.80;;;5.17;63.64
60337;BME280;46978;50.288;28.624;2023-12-20T02:11:30;98338.80;;;5.16;63.32
60337;BME280;46978;50.288;28.624;2023-12-20T02:12:31;98333.67;;;5.15;63.76
60337;BME280;46978;50.288;28.624;2023-12-20T02:13:33;98328.57;;;5.12;64.00
60337;BME280;46978;50.288;28.624;2023-12-20T02:14:35;98331.18;;;5.09;64.14
60337;BME280;46978;50.288;28.624;2023-12-20T02:15:37;98332.06;;;5.06;64.37
60337;BME280;46978;50.288;28.624;2023-12-20T02:16:39;98327.83;;;5.03;63.97
60337;BME280;46978;50.288;28.624;2023-12-20T02:17:41;98328.69;;;5.02;64.00
60337;BME280;46978;50.288;28.624;2023-12-20T02:18:43;98334.70;;;5.00;63.77
60337;BME280;46978;50.288;28.624;2023-12-20T02:19:45;98321.03;;;4.98;64.40
60337;BME280;46978;50.288;28.624;2023-12-20T02:20:47;98330.47;;;4.97;64.07
60337;BME280;46978;50.288;28.624;2023-12-20T02:21:48;98325.33;;;4.97;63.87
60337;BME280;46978;50.288;28.624;2023-12-20T02:22:50;98325.33;;;4.97;63.97
60337;BME280;46978;50.288;28.624;2023-12-20T02:23:51;98332.13;;;5.00;63.14
60337;BME280;46978;50.288;28.624;2023-12-20T02:24:53;98320.97;;;5.02;63.69
60337;BME280;46978;50.288;28.624;2023-12-20T02:25:55;98317.56;;;5.02;63.48
60337;BME280;46978;50.288;28.624;2023-12-20T02:26:57;98321.81;;;5.03;63.21
60337;BME280;46978;50.288;28.624;2023-12-20T02:27:59;98316.67;;;5.03;63.49
60337;BME280;46978;50.288;28.624;2023-12-20T02:29:02;98319.24;;;5.03;63.42
60337;BME280;46978;50.288;28.624;2023-12-20T02:30:05;98315.81;;;5.04;63.33
60337;BME280;46978;50.288;28.624;2023-12-20T02:31:07;98315.81;;;5.04;63.17
60337;BME280;46978;50.288;28.624;2023-12-20T02:32:09;98321.80;;;5.05;63.32
60337;BME280;46978;50.288;28.624;2023-12-20T02:33:12;98317.56;;;5.02;63.76
60337;BME280;46978;50.288;28.624;2023-12-20T02:34:15;98317.62;;;4.97;63.82
60337;BME280;46978;50.288;28.624;2023-12-20T02:35:17;98317.62;;;4.97;63.82
60337;BME280;46978;50.288;28.624;2023-12-20T02:36:19;98323.63;;;4.96;63.89
60337;BME280;46978;50.288;28.624;2023-12-20T02:37:21;98314.25;;;4.91;64.07
60337;BME280;46978;50.288;28.624;2023-12-20T02:38:23;98310.86;;;4.89;64.11
60337;BME280;46978;50.288;28.624;2023-12-20T02:39:24;98326.31;;;4.85;64.34
60337;BME280;46978;50.288;28.624;2023-12-20T02:40:26;98320.38;;;4.82;64.26
60337;BME280;46978;50.288;28.624;2023-12-20T02:41:27;98316.09;;;4.81;63.84
60337;BME280;46978;50.288;28.624;2023-12-20T02:42:29;98316.08;;;4.82;63.98
60337;BME280;46978;50.288;28.624;2023-12-20T02:43:31;98320.38;;;4.82;63.93
60337;BME280;46978;50.288;28.624;2023-12-20T02:44:33;98316.09;;;4.81;64.16
60337;BME280;46978;50.288;28.624;2023-12-20T02:45:34;98318.68;;;4.79;64.18
60337;BME280;46978;50.288;28.624;2023-12-20T02:46:38;98323.02;;;4.76;64.52
60337;BME280;46978;50.288;28.624;2023-12-20T02:47:39;98309.33;;;4.72;64.76
60337;BME280;46978;50.288;28.624;2023-12-20T02:48:41;98308.52;;;4.69;64.85
60337;BME280;46978;50.288;28.624;2023-12-20T02:49:42;98314.55;;;4.64;65.13
60337;BME280;46978;50.288;28.624;2023-12-20T02:50:46;98312.92;;;4.59;65.35
60337;BME280;46978;50.288;28.624;2023-12-20T02:51:48;98312.98;;;4.54;65.59
60337;BME280;46978;50.288;28.624;2023-12-20T02:52:50;98306.16;;;4.50;65.68
60337;BME280;46978;50.288;28.624;2023-12-20T02:53:52;98309.59;;;4.47;65.81
60337;BME280;46978;50.288;28.624;2023-12-20T02:54:53;98307.94;;;4.45;65.44
60337;BME280;46978;50.288;28.624;2023-12-20T02:55:55;98313.09;;;4.43;65.92
60337;BME280;46978;50.288;28.624;2023-12-20T02:56:57;98311.38;;;4.42;65.75
60337;BME280;46978;50.288;28.624;2023-12-20T02:57:58;98311.41;;;4.39;66.02
60337;BME280;46978;50.288;28.624;2023-12-20T02:59:00;98301.15;;;4.38;65.75
60337;BME280;46978;50.288;28.624;2023-12-20T03:00:02;98308.87;;;4.36;65.95
60337;BME280;46978;50.288;28.624;2023-12-20T03:01:04;98303.73;;;4.36;65.86
60337;BME280;46978;50.288;28.624;2023-12-20T03:02:05;98304.59;;;4.35;65.95
60337;BME280;46978;50.288;28.624;2023-12-20T03:03:07;98302.92;;;4.33;66.13
60337;BME280;46978;50.288;28.624;2023-12-20T03:04:08;98300.39;;;4.29;66.44
60337;BME280;46978;50.288;28.624;2023-12-20T03:05:10;98301.27;;;4.25;66.14
60337;BME280;46978;50.288;28.624;2023-12-20T03:06:18;98302.11;;;4.26;66.32
60337;BME280;46978;50.288;28.624;2023-12-20T03:07:19;98299.58;;;4.23;66.61
60337;BME280;46978;50.288;28.624;2023-12-20T03:08:21;98303.06;;;4.19;66.92
60337;BME280;46978;50.288;28.624;2023-12-20T03:09:23;98308.22;;;4.16;66.99
60337;BME280;46978;50.288;28.624;2023-12-20T03:10:25;98307.38;;;4.12;67.17
60337;BME280;46978;50.288;28.624;2023-12-20T03:11:27;98308.30;;;4.08;67.30
60337;BME280;46978;50.288;28.624;2023-12-20T03:12:29;98308.30;;;4.06;67.43
60337;BME280;46978;50.288;28.624;2023-12-20T03:13:30;98309.17;;;4.04;67.70
60337;BME280;46978;50.288;28.624;2023-12-20T03:14:32;98306.63;;;4.01;67.86
60337;BME280;46978;50.288;28.624;2023-12-20T03:15:34;98307.50;;;3.98;67.86
60337;BME280;46978;50.288;28.624;2023-12-20T03:16:35;98306.69;;;3.94;68.05
60337;BME280;46978;50.288;28.624;2023-12-20T03:17:37;98298.17;;;3.91;68.20
60337;BME280;46978;50.288;28.624;2023-12-20T03:18:39;98300.77;;;3.88;68.29
60337;BME280;46978;50.288;28.624;2023-12-20T03:19:41;98300.78;;;3.86;68.47
60337;BME280;46978;50.288;28.624;2023-12-20T03:20:42;98298.22;;;3.85;68.58
60337;BME280;46978;50.288;28.624;2023-12-20T03:21:44;98305.08;;;3.84;68.79
60337;BME280;46978;50.288;28.624;2023-12-20T03:22:46;98299.97;;;3.81;68.91
60337;BME280;46978;50.288;28.624;2023-12-20T03:23:48;98304.23;;;3.81;69.01
60337;BME280;46978;50.288;28.624;2023-12-20T03:24:49;98299.98;;;3.80;69.10
60337;BME280;46978;50.288;28.624;2023-12-20T03:25:51;98313.67;;;3.79;69.20
60337;BME280;46978;50.288;28.624;2023-12-20T03:26:53;98307.70;;;3.76;69.30
60337;BME280;46978;50.288;28.624;2023-12-20T03:27:55;98308.56;;;3.75;69.53
60337;BME280;46978;50.288;28.624;2023-12-20T03:28:56;98311.14;;;3.74;69.64
60337;BME280;46978;50.288;28.624;2023-12-20T03:29:58;98308.57;;;3.74;69.58
60337;BME280;46978;50.288;28.624;2023-12-20T03:31:00;98311.98;;;3.73;69.68
60337;BME280;46978;50.288;28.624;2023-12-20T03:32:02;98299.17;;;3.71;69.70
60337;BME280;46978;50.288;28.624;2023-12-20T03:33:04;98305.19;;;3.70;69.89
60337;BME280;46978;50.288;28.624;2023-12-20T03:34:05;98303.47;;;3.69;69.99
60337;BME280;46978;50.288;28.624;2023-12-20T03:35:07;98300.09;;;3.66;70.19
60337;BME280;46978;50.288;28.624;2023-12-20T03:36:09;98295.83;;;3.63;70.32
60337;BME280;46978;50.288;28.624;2023-12-20T03:37:11;98295.02;;;3.58;70.49
60337;BME280;46978;50.288;28.624;2023-12-20T03:38:15;98302.72;;;3.56;70.62
60337;BME280;46978;50.288;28.624;2023-12-20T03:39:17;98299.30;;;3.54;70.72
60337;BME280;46978;50.288;28.624;2023-12-20T03:40:20;98295.06;;;3.52;70.89
60337;BME280;46978;50.288;28.624;2023-12-20T03:41:21;98303.61;;;3.51;70.91
60337;BME280;46978;50.288;28.624;2023-12-20T03:42:23;98291.63;;;3.50;71.07
60337;BME280;46978;50.288;28.624;2023-12-20T03:43:24;98293.37;;;3.48;71.07
60337;BME280;46978;50.288;28.624;2023-12-20T03:44:26;98297.65;;;3.49;71.23
60337;BME280;46978;50.288;28.624;2023-12-20T03:45:28;98297.66;;;3.47;71.36
60337;BME280;46978;50.288;28.624;2023-12-20T03:46:30;98297.66;;;3.47;71.44
60337;BME280;46978;50.288;28.624;2023-12-20T03:47:32;98295.08;;;3.49;71.41
60337;BME280;46978;50.288;28.624;2023-12-20T03:48:34;98300.20;;;3.50;71.37
60337;BME280;46978;50.288;28.624;2023-12-20T03:49:35;98288.22;;;3.51;71.47
60337;BME280;46978;50.288;28.624;2023-12-20T03:50:37;98289.06;;;3.51;71.55
60337;BME280;46978;50.288;28.624;2023-12-20T03:51:39;98291.61;;;3.53;71.60
60337;BME280;46978;50.288;28.624;2023-12-20T03:52:41;98297.62;;;3.53;71.40
60337;BME280;46978;50.288;28.624;2023-12-20T03:53:42;98290.77;;;3.54;71.11
60337;BME280;46978;50.288;28.624;2023-12-20T03:54:44;98289.90;;;3.56;71.28
60337;BME280;46978;50.288;28.624;2023-12-20T03:55:45;98289.02;;;3.56;71.39
60337;BME280;46978;50.288;28.624;2023-12-20T03:56:47;98289.90;;;3.56;71.52
60337;BME280;46978;50.288;28.624;2023-12-20T03:57:49;98294.16;;;3.54;71.41
60337;BME280;46978;50.288;28.624;2023-12-20T03:58:50;98288.20;;;3.52;71.35
60337;BME280;46978;50.288;28.624;2023-12-20T03:59:52;98294.19;;;3.51;71.57
60337;BME280;46978;50.288;28.624;2023-12-20T04:00:54;98295.08;;;3.49;71.57
60337;BME280;46978;50.288;28.624;2023-12-20T04:01:55;98296.78;;;3.47;71.54
60337;BME280;46978;50.288;28.624;2023-12-20T04:02:57;98294.23;;;3.45;71.76
60337;BME280;46978;50.288;28.624;2023-12-20T04:03:59;98297.69;;;3.43;71.89
60337;BME280;46978;50.288;28.624;2023-12-20T04:05:00;98291.70;;;3.39;71.90
60337;BME280;46978;50.288;28.624;2023-12-20T04:06:03;98296.00;;;3.38;71.92
60337;BME280;46978;50.288;28.624;2023-12-20T04:07:04;98292.59;;;3.38;71.81
60337;BME280;46978;50.288;28.624;2023-12-20T04:08:07;98295.16;;;3.36;71.85
60337;BME280;46978;50.288;28.624;2023-12-20T04:09:09;98296.86;;;3.36;71.98
60337;BME280;46978;50.288;28.624;2023-12-20T04:10:12;98296.86;;;3.34;72.03
60337;BME280;46978;50.288;28.624;2023-12-20T04:11:14;98294.31;;;3.33;72.14
60337;BME280;46978;50.288;28.624;2023-12-20T04:12:19;98298.59;;;3.32;72.05
60337;BME280;46978;50.288;28.624;2023-12-20T04:13:20;98286.63;;;3.31;72.29
60337;BME280;46978;50.288;28.624;2023-12-20T04:14:22;98296.03;;;3.32;72.46
60337;BME280;46978;50.288;28.624;2023-12-20T04:15:24;98294.31;;;3.33;72.56
60337;BME280;46978;50.288;28.624;2023-12-20T04:16:26;98292.62;;;3.33;72.59
60337;BME280;46978;50.288;28.624;2023-12-20T04:17:28;98294.29;;;3.36;72.54
60337;BME280;46978;50.288;28.624;2023-12-20T04:18:29;98296.86;;;3.36;72.47
60337;BME280;46978;50.288;28.624;2023-12-20T04:19:31;98303.69;;;3.38;72.48
60337;BME280;46978;50.288;28.624;2023-12-20T04:20:33;98296.83;;;3.39;72.49
60337;BME280;46978;50.288;28.624;2023-12-20T04:21:35;98295.98;;;3.40;72.52
60337;BME280;46978;50.288;28.624;2023-12-20T04:22:36;98298.53;;;3.43;72.51
60337;BME280;46978;50.288;28.624;2023-12-20T04:23:38;98299.36;;;3.45;72.49
60337;BME280;46978;50.288;28.624;2023-12-20T04:24:39;98290.81;;;3.46;72.40
60337;BME280;46978;50.288;28.624;2023-12-20T04:25:41;98301.06;;;3.48;72.48
60337;BME280;46978;50.288;28.624;2023-12-20T04:26:43;98299.34;;;3.47;72.44
60337;BME280;46978;50.288;28.624;2023-12-20T04:27:45;98297.66;;;3.47;72.37
60337;BME280;46978;50.288;28.624;2023-12-20T04:28:46;98295.94;;;3.46;72.44
60337;BME280;46978;50.288;28.624;2023-12-20T04:29:48;98302.80;;;3.46;72.12
60337;BME280;46978;50.288;28.624;2023-12-20T04:30:50;98300.23;;;3.46;72.37
60337;BME280;46978;50.288;28.624;2023-12-20T04:31:51;98297.67;;;3.46;72.33
60337;BME280;46978;50.288;28.624;2023-12-20T04:32:53;98300.23;;;3.46;72.19
60337;BME280;46978;50.288;28.624;2023-12-20T04:33:55;98301.05;;;3.49;72.26
60337;BME280;46978;50.288;28.624;2023-12-20T04:34:56;98302.77;;;3.50;72.03
60337;BME280;46978;50.288;28.624;2023-12-20T04:35:58;98307.00;;;3.53;72.21
60337;BME280;46978;50.288;28.624;2023-12-20T04:37:00;98312.99;;;3.55;72.27
60337;BME280;46978;50.288;28.624;2023-12-20T04:38:02;98304.41;;;3.57;72.28
60337;BME280;46978;50.288;28.624;2023-12-20T04:39:04;98309.52;;;3.59;72.27
60337;BME280;46978;50.288;28.624;2023-12-20T04:40:07;98307.82;;;3.61;72.19
60337;BME280;46978;50.288;28.624;2023-12-20T04:41:08;98309.49;;;3.64;71.96
60337;BME280;46978;50.288;28.624;2023-12-20T04:42:10;98304.34;;;3.65;72.14
60337;BME280;46978;50.288;28.624;2023-12-20T04:43:12;98312.02;;;3.68;72.27
60337;BME280;46978;50.288;28.624;2023-12-20T04:44:13;98314.58;;;3.70;72.23
60337;BME280;46978;50.288;28.624;2023-12-20T04:45:15;98312.00;;;3.71;72.04
60337;BME280;46978;50.288;28.624;2023-12-20T04:46:17;98314.55;;;3.73;71.98
60337;BME280;46978;50.288;28.624;2023-12-20T04:47:19;98315.41;;;3.75;71.92
60337;BME280;46978;50.288;28.624;2023-12-20T04:48:20;98317.09;;;3.77;71.79
60337;BME280;46978;50.288;28.624;2023-12-20T04:49:22;98318.79;;;3.80;71.81
60337;BME280;46978;50.288;28.624;2023-12-20T04:50:25;98316.21;;;3.82;71.68
60337;BME280;46978;50.288;28.624;2023-12-20T04:51:27;98322.17;;;3.84;71.66
60337;BME280;46978;50.288;28.624;2023-12-20T04:52:29;98319.59;;;3.85;71.65
60337;BME280;46978;50.288;28.624;2023-12-20T04:53:30;98312.75;;;3.87;71.56
60337;BME280;46978;50.288;28.624;2023-12-20T04:54:32;98310.17;;;3.89;71.58
60337;BME280;46978;50.288;28.624;2023-12-20T04:55:33;98309.30;;;3.88;71.21
60337;BME280;46978;50.288;28.624;2023-12-20T04:56:35;98318.70;;;3.91;71.29
60337;BME280;46978;50.288;28.624;2023-12-20T04:57:37;98310.15;;;3.92;71.35
60337;BME280;46978;50.288;28.624;2023-12-20T04:58:38;98308.41;;;3.94;71.49
60337;BME280;46978;50.288;28.624;2023-12-20T04:59:40;98305.83;;;3.95;71.40
60337;BME280;46978;50.288;28.624;2023-12-20T05:00:42;98303.25;;;3.97;71.28
60337;BME280;46978;50.288;28.624;2023-12-20T05:01:43;98306.65;;;3.99;71.28
60337;BME280;46978;50.288;28.624;2023-12-20T05:02:45;98307.48;;;4.00;70.97
60337;BME280;46978;50.288;28.624;2023-12-20T05:03:47;98301.50;;;4.01;70.93
60337;BME280;46978;50.288;28.624;2023-12-20T05:04:48;98304.05;;;4.02;70.72
60337;BME280;46978;50.288;28.624;2023-12-20T05:05:50;98304.04;;;4.04;70.89
60337;BME280;46978;50.288;28.624;2023-12-20T05:06:52;98300.63;;;4.05;70.83
60337;BME280;46978;50.288;28.624;2023-12-20T05:07:54;98304.03;;;4.05;70.90
60337;BME280;46978;50.288;28.624;2023-12-20T05:08:55;98303.19;;;4.05;70.71
60337;BME280;46978;50.288;28.624;2023-12-20T05:09:58;98296.33;;;4.05;70.63
60337;BME280;46978;50.288;28.624;2023-12-20T05:11:00;98298.89;;;4.05;70.69
60337;BME280;46978;50.288;28.624;2023-12-20T05:12:03;98293.74;;;4.07;70.63
60337;BME280;46978;50.288;28.624;2023-12-20T05:13:05;98286.06;;;4.05;70.23
60337;BME280;46978;50.288;28.624;2023-12-20T05:14:06;98286.89;;;4.06;69.96
60337;BME280;46978;50.288;28.624;2023-12-20T05:15:08;98281.77;;;4.06;70.28
60337;BME280;46978;50.288;28.624;2023-12-20T05:16:10;98285.19;;;4.08;70.24
60337;BME280;46978;50.288;28.624;2023-12-20T05:17:11;98279.17;;;4.09;70.33
60337;BME280;46978;50.288;28.624;2023-12-20T05:18:13;98268.91;;;4.07;70.27
60337;BME280;46978;50.288;28.624;2023-12-20T05:19:15;98280.02;;;4.11;70.04
60337;BME280;46978;50.288;28.624;2023-12-20T05:20:18;98280.88;;;4.10;69.99
60337;BME280;46978;50.288;28.624;2023-12-20T05:21:19;98280.88;;;4.10;70.00
60337;BME280;46978;50.288;28.624;2023-12-20T05:22:21;98278.33;;;4.08;69.76
60337;BME280;46978;50.288;28.624;2023-12-20T05:23:23;98280.91;;;4.07;69.87
60337;BME280;46978;50.288;28.624;2023-12-20T05:24:24;98276.66;;;4.03;69.88
60337;BME280;46978;50.288;28.624;2023-12-20T05:25:26;98285.27;;;3.99;70.12
60337;BME280;46978;50.288;28.624;2023-12-20T05:26:28;98280.18;;;3.94;70.15
60337;BME280;46978;50.288;28.624;2023-12-20T05:27:29;98284.52;;;3.87;70.26